sensor_id;sensor_type;location;lat;lon;timestamp;P1;durP1;ratioP1;P2;durP2;ratioP2
53594;SDS011;39479;45.720;11.310;2023-07-28T00:02:09;2.72;;;2.50;;
53594;SDS011;39479;45.720;11.310;2023-07-28T00:04:35;2.33;;;2.15;;
53594;SDS011;39479;45.720;11.310;2023-07-28T00:07:01;2.92;;;2.63;;
53594;SDS011;39479;45.720;11.310;2023-07-28T00:09:27;3.35;;;2.60;;
53594;SDS011;39479;45.720;11.310;2023-07-28T00:11:53;4.07;;;2.80;;
53594;SDS011;39479;45.720;11.310;2023-07-28T00:14:21;6.63;;;2.85;;
53594;SDS011;39479;45.720;11.310;2023-07-28T00:16:47;5.45;;;2.92;;
53594;SDS011;39479;45.720;11.310;2023-07-28T00:19:13;6.13;;;2.65;;
53594;SDS011;39479;45.720;11.310;2023-07-28T00:21:39;2.53;;;2.33;;
53594;SDS011;39479;45.720;11.310;2023-07-28T00:24:05;3.42;;;2.90;;
53594;SDS011;39479;45.720;11.310;2023-07-28T00:26:31;3.88;;;3.10;;
53594;SDS011;39479;45.720;11.310;2023-07-28T00:28:58;3.00;;;2.70;;
53594;SDS011;39479;45.720;11.310;2023-07-28T00:31:24;3.03;;;2.75;;
53594;SDS011;39479;45.720;11.310;2023-07-28T00:33:50;3.72;;;2.65;;
53594;SDS011;39479;45.720;11.310;2023-07-28T00:36:16;4.10;;;2.83;;
53594;SDS011;39479;45.720;11.310;2023-07-28T00:38:42;4.00;;;2.70;;
53594;SDS011;39479;45.720;11.310;2023-07-28T00:41:08;3.50;;;2.50;;
53594;SDS011;39479;45.720;11.310;2023-07-28T00:43:34;2.85;;;2.65;;
53594;SDS011;39479;45.720;11.310;2023-07-28T00:46:00;2.95;;;2.45;;
53594;SDS011;39479;45.720;11.310;2023-07-28T00:48:26;3.00;;;2.70;;
53594;SDS011;39479;45.720;11.310;2023-07-28T00:50:52;3.25;;;2.83;;
53594;SDS011;39479;45.720;11.310;2023-07-28T00:53:19;2.90;;;2.70;;
53594;SDS011;39479;45.720;11.310;2023-07-28T00:55:45;3.15;;;2.85;;
53594;SDS011;39479;45.720;11.310;2023-07-28T00:58:11;3.20;;;2.83;;
53594;SDS011;39479;45.720;11.310;2023-07-28T01:00:38;4.07;;;2.90;;
53594;SDS011;39479;45.720;11.310;2023-07-28T01:03:04;4.00;;;2.83;;
53594;SDS011;39479;45.720;11.310;2023-07-28T01:08:32;3.10;;;2.80;;
53594;SDS011;39479;45.720;11.310;2023-07-28T01:11:00;3.42;;;2.50;;
53594;SDS011;39479;45.720;11.310;2023-07-28T01:13:26;2.97;;;2.75;;
53594;SDS011;39479;45.720;11.310;2023-07-28T01:15:52;4.75;;;2.55;;
53594;SDS011;39479;45.720;11.310;2023-07-28T01:18:18;3.08;;;2.38;;
53594;SDS011;39479;45.720;11.310;2023-07-28T01:20:45;3.00;;;2.80;;
53594;SDS011;39479;45.720;11.310;2023-07-28T01:23:19;4.70;;;2.90;;
53594;SDS011;39479;45.720;11.310;2023-07-28T01:25:49;3.00;;;2.80;;
53594;SDS011;39479;45.720;11.310;2023-07-28T01:28:19;2.55;;;2.35;;
53594;SDS011;39479;45.720;11.310;2023-07-28T01:30:46;3.42;;;2.53;;
53594;SDS011;39479;45.720;11.310;2023-07-28T01:33:12;2.97;;;2.67;;
53594;SDS011;39479;45.720;11.310;2023-07-28T01:35:38;6.30;;;2.80;;
53594;SDS011;39479;45.720;11.310;2023-07-28T01:38:04;3.97;;;2.67;;
53594;SDS011;39479;45.720;11.310;2023-07-28T01:40:30;4.20;;;2.70;;
53594;SDS011;39479;45.720;11.310;2023-07-28T01:42:56;3.10;;;2.80;;
53594;SDS011;39479;45.720;11.310;2023-07-28T01:45:23;3.65;;;2.75;;
53594;SDS011;39479;45.720;11.310;2023-07-28T01:47:49;4.25;;;2.70;;
53594;SDS011;39479;45.720;11.310;2023-07-28T01:50:15;3.42;;;2.90;;
53594;SDS011;39479;45.720;11.310;2023-07-28T01:52:41;3.97;;;2.83;;
53594;SDS011;39479;45.720;11.310;2023-07-28T01:55:07;3.10;;;2.80;;
53594;SDS011;39479;45.720;11.310;2023-07-28T01:57:33;3.08;;;2.75;;
53594;SDS011;39479;45.720;11.310;2023-07-28T02:00:00;3.00;;;2.70;;
53594;SDS011;39479;45.720;11.310;2023-07-28T02:02:26;5.82;;;3.00;;
53594;SDS011;39479;45.720;11.310;2023-07-28T02:04:52;3.13;;;2.65;;
53594;SDS011;39479;45.720;11.310;2023-07-28T02:07:18;3.60;;;2.80;;
53594;SDS011;39479;45.720;11.310;2023-07-28T02:09:44;4.85;;;2.70;;
53594;SDS011;39479;45.720;11.310;2023-07-28T02:12:10;3.53;;;2.85;;
53594;SDS011;39479;45.720;11.310;2023-07-28T02:14:36;3.15;;;2.85;;
53594;SDS011;39479;45.720;11.310;2023-07-28T02:17:02;3.22;;;2.90;;
53594;SDS011;39479;45.720;11.310;2023-07-28T02:19:28;4.32;;;3.03;;
53594;SDS011;39479;45.720;11.310;2023-07-28T02:21:54;3.30;;;2.80;;
53594;SDS011;39479;45.720;11.310;2023-07-28T02:24:20;3.15;;;2.85;;
53594;SDS011;39479;45.720;11.310;2023-07-28T02:26:46;3.25;;;2.83;;
53594;SDS011;39479;45.720;11.310;2023-07-28T02:29:12;3.22;;;2.75;;
53594;SDS011;39479;45.720;11.310;2023-07-28T02:31:38;4.90;;;2.80;;
53594;SDS011;39479;45.720;11.310;2023-07-28T02:34:04;4.43;;;3.10;;
53594;SDS011;39479;45.720;11.310;2023-07-28T02:36:30;2.80;;;2.60;;
53594;SDS011;39479;45.720;11.310;2023-07-28T02:38:56;3.50;;;3.00;;
53594;SDS011;39479;45.720;11.310;2023-07-28T02:41:22;4.13;;;2.78;;
53594;SDS011;39479;45.720;11.310;2023-07-28T02:43:48;3.13;;;2.83;;
53594;SDS011;39479;45.720;11.310;2023-07-28T02:46:15;3.20;;;2.90;;
53594;SDS011;39479;45.720;11.310;2023-07-28T02:48:41;3.63;;;2.90;;
53594;SDS011;39479;45.720;11.310;2023-07-28T02:51:07;5.10;;;2.80;;
53594;SDS011;39479;45.720;11.310;2023-07-28T02:53:33;3.20;;;2.90;;
53594;SDS011;39479;45.720;11.310;2023-07-28T02:55:59;3.58;;;3.10;;
53594;SDS011;39479;45.720;11.310;2023-07-28T02:58:25;3.13;;;2.83;;
53594;SDS011;39479;45.720;11.310;2023-07-28T03:00:51;4.40;;;3.13;;
53594;SDS011;39479;45.720;11.310;2023-07-28T03:03:17;3.08;;;2.88;;
53594;SDS011;39479;45.720;11.310;2023-07-28T03:05:43;3.08;;;2.78;;
53594;SDS011;39479;45.720;11.310;2023-07-28T03:08:09;3.60;;;3.30;;
53594;SDS011;39479;45.720;11.310;2023-07-28T03:10:35;2.80;;;2.60;;
53594;SDS011;39479;45.720;11.310;2023-07-28T03:13:01;3.38;;;3.08;;
53594;SDS011;39479;45.720;11.310;2023-07-28T03:15:27;3.58;;;2.90;;
53594;SDS011;39479;45.720;11.310;2023-07-28T03:17:53;4.53;;;3.35;;
53594;SDS011;39479;45.720;11.310;2023-07-28T03:20:19;3.70;;;3.08;;
53594;SDS011;39479;45.720;11.310;2023-07-28T03:22:46;4.82;;;3.53;;
53594;SDS011;39479;45.720;11.310;2023-07-28T03:25:12;6.38;;;3.20;;
53594;SDS011;39479;45.720;11.310;2023-07-28T03:27:38;6.63;;;3.47;;
53594;SDS011;39479;45.720;11.310;2023-07-28T03:30:04;4.40;;;3.10;;
53594;SDS011;39479;45.720;11.310;2023-07-28T03:32:36;5.50;;;3.05;;
53594;SDS011;39479;45.720;11.310;2023-07-28T03:35:02;4.30;;;2.97;;
53594;SDS011;39479;45.720;11.310;2023-07-28T03:37:30;3.90;;;3.42;;
53594;SDS011;39479;45.720;11.310;2023-07-28T03:39:56;4.35;;;3.10;;
53594;SDS011;39479;45.720;11.310;2023-07-28T03:42:22;3.42;;;3.13;;
53594;SDS011;39479;45.720;11.310;2023-07-28T03:44:48;4.43;;;3.65;;
53594;SDS011;39479;45.720;11.310;2023-07-28T03:47:15;4.28;;;3.38;;
53594;SDS011;39479;45.720;11.310;2023-07-28T03:49:41;6.53;;;3.05;;
53594;SDS011;39479;45.720;11.310;2023-07-28T03:52:07;3.70;;;3.38;;
53594;SDS011;39479;45.720;11.310;2023-07-28T03:54:33;3.63;;;3.30;;
53594;SDS011;39479;45.720;11.310;2023-07-28T03:56:59;6.20;;;3.28;;
53594;SDS011;39479;45.720;11.310;2023-07-28T03:59:25;3.45;;;3.15;;
53594;SDS011;39479;45.720;11.310;2023-07-28T04:01:51;3.90;;;3.20;;
53594;SDS011;39479;45.720;11.310;2023-07-28T04:04:17;5.35;;;3.20;;
53594;SDS011;39479;45.720;11.310;2023-07-28T04:06:48;3.92;;;3.25;;
53594;SDS011;39479;45.720;11.310;2023-07-28T04:09:15;3.55;;;3.25;;
53594;SDS011;39479;45.720;11.310;2023-07-28T04:11:42;6.63;;;3.50;;
53594;SDS011;39479;45.720;11.310;2023-07-28T04:14:08;4.10;;;3.40;;
53594;SDS011;39479;45.720;11.310;2023-07-28T04:16:34;3.85;;;3.20;;
53594;SDS011;39479;45.720;11.310;2023-07-28T04:19:00;3.85;;;3.50;;
53594;SDS011;39479;45.720;11.310;2023-07-28T04:21:27;6.00;;;3.70;;
53594;SDS011;39479;45.720;11.310;2023-07-28T04:23:53;3.53;;;3.20;;
53594;SDS011;39479;45.720;11.310;2023-07-28T04:26:19;3.42;;;3.13;;
53594;SDS011;39479;45.720;11.310;2023-07-28T04:28:45;4.20;;;3.80;;
53594;SDS011;39479;45.720;11.310;2023-07-28T04:31:11;5.38;;;3.28;;
53594;SDS011;39479;45.720;11.310;2023-07-28T04:33:38;4.97;;;3.30;;
53594;SDS011;39479;45.720;11.310;2023-07-28T04:36:06;4.00;;;3.28;;
53594;SDS011;39479;45.720;11.310;2023-07-28T04:38:32;3.80;;;3.40;;
53594;SDS011;39479;45.720;11.310;2023-07-28T04:40:58;3.55;;;3.22;;
53594;SDS011;39479;45.720;11.310;2023-07-28T04:43:24;3.42;;;3.10;;
53594;SDS011;39479;45.720;11.310;2023-07-28T04:45:50;4.18;;;3.03;;
53594;SDS011;39479;45.720;11.310;2023-07-28T04:48:16;5.22;;;3.20;;
53594;SDS011;39479;45.720;11.310;2023-07-28T04:50:42;3.45;;;3.15;;
53594;SDS011;39479;45.720;11.310;2023-07-28T04:53:08;3.40;;;3.10;;
53594;SDS011;39479;45.720;11.310;2023-07-28T04:55:34;3.85;;;3.40;;
53594;SDS011;39479;45.720;11.310;2023-07-28T04:58:00;3.33;;;3.00;;
53594;SDS011;39479;45.720;11.310;2023-07-28T05:00:26;3.92;;;3.50;;
53594;SDS011;39479;45.720;11.310;2023-07-28T05:02:52;3.10;;;2.90;;
53594;SDS011;39479;45.720;11.310;2023-07-28T05:05:18;3.75;;;3.10;;
53594;SDS011;39479;45.720;11.310;2023-07-28T05:07:44;3.53;;;2.97;;
53594;SDS011;39479;45.720;11.310;2023-07-28T05:10:10;5.10;;;3.17;;
53594;SDS011;39479;45.720;11.310;2023-07-28T05:12:36;3.92;;;3.50;;
53594;SDS011;39479;45.720;11.310;2023-07-28T05:15:03;8.18;;;3.35;;
53594;SDS011;39479;45.720;11.310;2023-07-28T05:17:29;4.03;;;3.40;;
53594;SDS011;39479;45.720;11.310;2023-07-28T05:19:55;4.60;;;3.10;;
53594;SDS011;39479;45.720;11.310;2023-07-28T05:22:21;4.20;;;3.20;;
53594;SDS011;39479;45.720;11.310;2023-07-28T05:24:47;3.80;;;3.33;;
53594;SDS011;39479;45.720;11.310;2023-07-28T05:27:13;3.80;;;3.40;;
53594;SDS011;39479;45.720;11.310;2023-07-28T05:29:39;5.10;;;3.47;;
53594;SDS011;39479;45.720;11.310;2023-07-28T05:32:05;4.75;;;2.97;;
53594;SDS011;39479;45.720;11.310;2023-07-28T05:34:32;3.53;;;3.22;;
53594;SDS011;39479;45.720;11.310;2023-07-28T05:36:58;3.90;;;3.30;;
53594;SDS011;39479;45.720;11.310;2023-07-28T05:39:24;4.57;;;3.15;;
53594;SDS011;39479;45.720;11.310;2023-07-28T05:41:50;3.92;;;3.50;;
53594;SDS011;39479;45.720;11.310;2023-07-28T05:44:16;3.60;;;3.30;;
53594;SDS011;39479;45.720;11.310;2023-07-28T05:46:42;3.97;;;3.30;;
53594;SDS011;39479;45.720;11.310;2023-07-28T05:49:09;3.17;;;2.80;;
53594;SDS011;39479;45.720;11.310;2023-07-28T05:51:35;3.38;;;3.08;;
53594;SDS011;39479;45.720;11.310;2023-07-28T05:54:01;3.40;;;3.10;;
53594;SDS011;39479;45.720;11.310;2023-07-28T05:56:27;3.42;;;3.13;;
53594;SDS011;39479;45.720;11.310;2023-07-28T05:58:54;3.30;;;2.90;;
53594;SDS011;39479;45.720;11.310;2023-07-28T06:01:20;3.15;;;2.78;;
53594;SDS011;39479;45.720;11.310;2023-07-28T06:03:46;3.35;;;3.05;;
53594;SDS011;39479;45.720;11.310;2023-07-28T06:06:12;3.22;;;2.78;;
53594;SDS011;39479;45.720;11.310;2023-07-28T06:08:38;3.53;;;2.92;;
53594;SDS011;39479;45.720;11.310;2023-07-28T06:11:05;4.10;;;3.00;;
53594;SDS011;39479;45.720;11.310;2023-07-28T06:13:31;4.07;;;2.97;;
53594;SDS011;39479;45.720;11.310;2023-07-28T06:15:57;3.80;;;2.90;;
53594;SDS011;39479;45.720;11.310;2023-07-28T06:18:24;4.85;;;2.75;;
53594;SDS011;39479;45.720;11.310;2023-07-28T06:20:50;3.42;;;3.10;;
53594;SDS011;39479;45.720;11.310;2023-07-28T06:23:16;3.65;;;2.65;;
53594;SDS011;39479;45.720;11.310;2023-07-28T06:25:42;3.30;;;2.90;;
53594;SDS011;39479;45.720;11.310;2023-07-28T06:28:10;3.13;;;2.83;;
53594;SDS011;39479;45.720;11.310;2023-07-28T06:30:37;3.22;;;2.80;;
53594;SDS011;39479;45.720;11.310;2023-07-28T06:33:03;3.47;;;2.80;;
53594;SDS011;39479;45.720;11.310;2023-07-28T06:35:29;3.45;;;2.80;;
53594;SDS011;39479;45.720;11.310;2023-07-28T06:37:55;4.53;;;2.85;;
53594;SDS011;39479;45.720;11.310;2023-07-28T06:40:22;3.05;;;2.60;;
53594;SDS011;39479;45.720;11.310;2023-07-28T06:42:48;4.72;;;2.60;;
53594;SDS011;39479;45.720;11.310;2023-07-28T06:45:14;2.75;;;2.40;;
53594;SDS011;39479;45.720;11.310;2023-07-28T06:47:40;3.38;;;2.72;;
53594;SDS011;39479;45.720;11.310;2023-07-28T06:50:06;3.00;;;2.70;;
53594;SDS011;39479;45.720;11.310;2023-07-28T06:52:32;3.13;;;2.58;;
53594;SDS011;39479;45.720;11.310;2023-07-28T06:54:58;3.72;;;2.67;;
53594;SDS011;39479;45.720;11.310;2023-07-28T06:57:24;3.55;;;2.72;;
53594;SDS011;39479;45.720;11.310;2023-07-28T06:59:50;2.92;;;2.28;;
53594;SDS011;39479;45.720;11.310;2023-07-28T07:02:16;3.53;;;2.40;;
53594;SDS011;39479;45.720;11.310;2023-07-28T07:04:42;3.10;;;2.28;;
53594;SDS011;39479;45.720;11.310;2023-07-28T07:07:08;5.78;;;2.08;;
53594;SDS011;39479;45.720;11.310;2023-07-28T07:09:35;3.38;;;2.58;;
53594;SDS011;39479;45.720;11.310;2023-07-28T07:12:01;3.10;;;2.15;;
53594;SDS011;39479;45.720;11.310;2023-07-28T07:14:27;5.25;;;2.67;;
53594;SDS011;39479;45.720;11.310;2023-07-28T07:16:53;3.78;;;2.35;;
53594;SDS011;39479;45.720;11.310;2023-07-28T07:19:19;3.08;;;2.28;;
53594;SDS011;39479;45.720;11.310;2023-07-28T07:21:45;2.40;;;2.20;;
53594;SDS011;39479;45.720;11.310;2023-07-28T07:24:13;4.05;;;2.30;;
53594;SDS011;39479;45.720;11.310;2023-07-28T07:26:41;2.97;;;2.38;;
53594;SDS011;39479;45.720;11.310;2023-07-28T07:29:08;3.45;;;2.35;;
53594;SDS011;39479;45.720;11.310;2023-07-28T07:31:34;3.05;;;2.20;;
53594;SDS011;39479;45.720;11.310;2023-07-28T07:34:00;2.83;;;2.30;;
53594;SDS011;39479;45.720;11.310;2023-07-28T07:36:29;2.60;;;2.40;;
53594;SDS011;39479;45.720;11.310;2023-07-28T07:38:55;2.97;;;2.20;;
53594;SDS011;39479;45.720;11.310;2023-07-28T07:41:21;3.70;;;2.50;;
53594;SDS011;39479;45.720;11.310;2023-07-28T07:43:48;2.50;;;2.30;;
53594;SDS011;39479;45.720;11.310;2023-07-28T07:46:14;3.50;;;2.30;;
53594;SDS011;39479;45.720;11.310;2023-07-28T07:48:41;3.42;;;2.30;;
53594;SDS011;39479;45.720;11.310;2023-07-28T07:51:07;5.28;;;2.25;;
53594;SDS011;39479;45.720;11.310;2023-07-28T07:53:34;3.20;;;2.63;;
53594;SDS011;39479;45.720;11.310;2023-07-28T07:56:01;3.30;;;2.53;;
53594;SDS011;39479;45.720;11.310;2023-07-28T07:58:27;3.63;;;2.40;;
53594;SDS011;39479;45.720;11.310;2023-07-28T08:00:54;3.05;;;2.45;;
53594;SDS011;39479;45.720;11.310;2023-07-28T08:03:20;2.95;;;2.50;;
53594;SDS011;39479;45.720;11.310;2023-07-28T08:05:46;2.60;;;2.40;;
53594;SDS011;39479;45.720;11.310;2023-07-28T08:08:12;3.35;;;2.40;;
53594;SDS011;39479;45.720;11.310;2023-07-28T08:10:42;2.58;;;2.33;;
53594;SDS011;39479;45.720;11.310;2023-07-28T08:13:08;2.40;;;2.20;;
53594;SDS011;39479;45.720;11.310;2023-07-28T08:15:34;4.00;;;2.72;;
53594;SDS011;39479;45.720;11.310;2023-07-28T08:18:00;2.63;;;2.40;;
53594;SDS011;39479;45.720;11.310;2023-07-28T08:20:26;2.92;;;2.60;;
53594;SDS011;39479;45.720;11.310;2023-07-28T08:22:52;3.67;;;2.70;;
53594;SDS011;39479;45.720;11.310;2023-07-28T08:25:18;4.10;;;2.55;;
53594;SDS011;39479;45.720;11.310;2023-07-28T08:27:44;2.40;;;2.20;;
53594;SDS011;39479;45.720;11.310;2023-07-28T08:30:10;6.28;;;2.90;;
53594;SDS011;39479;45.720;11.310;2023-07-28T08:32:36;3.75;;;2.30;;
53594;SDS011;39479;45.720;11.310;2023-07-28T08:35:03;2.80;;;2.58;;
53594;SDS011;39479;45.720;11.310;2023-07-28T08:37:29;2.83;;;2.45;;
53594;SDS011;39479;45.720;11.310;2023-07-28T08:39:55;2.72;;;2.42;;
53594;SDS011;39479;45.720;11.310;2023-07-28T08:42:21;2.75;;;2.30;;
53594;SDS011;39479;45.720;11.310;2023-07-28T08:44:47;4.70;;;2.40;;
53594;SDS011;39479;45.720;11.310;2023-07-28T08:47:17;2.75;;;2.30;;
53594;SDS011;39479;45.720;11.310;2023-07-28T08:49:43;3.25;;;2.72;;
53594;SDS011;39479;45.720;11.310;2023-07-28T08:52:09;3.70;;;2.47;;
53594;SDS011;39479;45.720;11.310;2023-07-28T08:54:35;3.05;;;2.47;;
53594;SDS011;39479;45.720;11.310;2023-07-28T08:57:02;4.60;;;2.60;;
53594;SDS011;39479;45.720;11.310;2023-07-28T08:59:28;6.03;;;2.80;;
53594;SDS011;39479;45.720;11.310;2023-07-28T09:01:55;6.00;;;2.50;;
53594;SDS011;39479;45.720;11.310;2023-07-28T09:04:23;3.47;;;2.50;;
53594;SDS011;39479;45.720;11.310;2023-07-28T09:06:49;3.00;;;2.58;;
53594;SDS011;39479;45.720;11.310;2023-07-28T09:09:18;3.42;;;2.70;;
53594;SDS011;39479;45.720;11.310;2023-07-28T09:11:45;8.50;;;5.13;;
53594;SDS011;39479;45.720;11.310;2023-07-28T09:14:11;5.15;;;3.00;;
53594;SDS011;39479;45.720;11.310;2023-07-28T09:16:38;5.47;;;2.83;;
53594;SDS011;39479;45.720;11.310;2023-07-28T09:19:04;4.32;;;2.92;;
53594;SDS011;39479;45.720;11.310;2023-07-28T09:21:32;4.53;;;2.97;;
53594;SDS011;39479;45.720;11.310;2023-07-28T09:24:03;4.32;;;2.83;;
53594;SDS011;39479;45.720;11.310;2023-07-28T09:26:38;2.92;;;2.65;;
53594;SDS011;39479;45.720;11.310;2023-07-28T09:29:12;3.20;;;2.70;;
53594;SDS011;39479;45.720;11.310;2023-07-28T09:31:39;4.88;;;3.60;;
53594;SDS011;39479;45.720;11.310;2023-07-28T09:34:08;3.90;;;2.78;;
53594;SDS011;39479;45.720;11.310;2023-07-28T09:36:35;3.88;;;2.58;;
53594;SDS011;39479;45.720;11.310;2023-07-28T09:39:04;3.85;;;3.45;;
53594;SDS011;39479;45.720;11.310;2023-07-28T09:41:32;4.03;;;2.65;;
53594;SDS011;39479;45.720;11.310;2023-07-28T09:44:00;5.45;;;2.70;;
53594;SDS011;39479;45.720;11.310;2023-07-28T09:46:27;3.97;;;2.97;;
53594;SDS011;39479;45.720;11.310;2023-07-28T09:48:55;3.95;;;2.83;;
53594;SDS011;39479;45.720;11.310;2023-07-28T09:51:22;4.68;;;3.53;;
53594;SDS011;39479;45.720;11.310;2023-07-28T09:54:34;5.07;;;3.10;;
53594;SDS011;39479;45.720;11.310;2023-07-28T09:56:34;3.30;;;3.00;;
53594;SDS011;39479;45.720;11.310;2023-07-28T09:59:02;3.00;;;2.70;;
53594;SDS011;39479;45.720;11.310;2023-07-28T10:01:29;4.85;;;2.75;;
53594;SDS011;39479;45.720;11.310;2023-07-28T10:03:56;6.00;;;2.97;;
53594;SDS011;39479;45.720;11.310;2023-07-28T10:06:22;7.50;;;4.60;;
53594;SDS011;39479;45.720;11.310;2023-07-28T10:08:48;4.10;;;3.20;;
53594;SDS011;39479;45.720;11.310;2023-07-28T10:11:14;4.53;;;2.70;;
53594;SDS011;39479;45.720;11.310;2023-07-28T10:13:41;4.75;;;3.00;;
53594;SDS011;39479;45.720;11.310;2023-07-28T10:16:07;3.53;;;2.88;;
53594;SDS011;39479;45.720;11.310;2023-07-28T10:18:37;4.15;;;3.15;;
53594;SDS011;39479;45.720;11.310;2023-07-28T10:21:05;5.00;;;3.03;;
53594;SDS011;39479;45.720;11.310;2023-07-28T10:23:33;4.00;;;3.03;;
53594;SDS011;39479;45.720;11.310;2023-07-28T10:26:00;3.97;;;2.97;;
53594;SDS011;39479;45.720;11.310;2023-07-28T10:28:37;4.45;;;3.20;;
53594;SDS011;39479;45.720;11.310;2023-07-28T10:31:06;4.38;;;2.90;;
53594;SDS011;39479;45.720;11.310;2023-07-28T10:33:34;3.35;;;2.92;;
53594;SDS011;39479;45.720;11.310;2023-07-28T10:36:46;6.38;;;3.10;;
53594;SDS011;39479;45.720;11.310;2023-07-28T10:38:47;3.00;;;2.67;;
53594;SDS011;39479;45.720;11.310;2023-07-28T10:41:24;4.47;;;3.03;;
53594;SDS011;39479;45.720;11.310;2023-07-28T10:43:50;3.45;;;2.78;;
53594;SDS011;39479;45.720;11.310;2023-07-28T10:46:17;4.38;;;3.30;;
53594;SDS011;39479;45.720;11.310;2023-07-28T10:48:48;8.43;;;3.45;;
53594;SDS011;39479;45.720;11.310;2023-07-28T10:51:24;2.92;;;2.70;;
53594;SDS011;39479;45.720;11.310;2023-07-28T10:53:56;3.30;;;3.00;;
53594;SDS011;39479;45.720;11.310;2023-07-28T10:56:23;4.78;;;3.20;;
53594;SDS011;39479;45.720;11.310;2023-07-28T11:01:33;6.63;;;3.15;;
53594;SDS011;39479;45.720;11.310;2023-07-28T11:04:07;4.65;;;3.30;;
53594;SDS011;39479;45.720;11.310;2023-07-28T11:06:34;4.25;;;3.10;;
53594;SDS011;39479;45.720;11.310;2023-07-28T11:09:00;3.47;;;3.17;;
53594;SDS011;39479;45.720;11.310;2023-07-28T11:11:26;5.32;;;3.55;;
53594;SDS011;39479;45.720;11.310;2023-07-28T11:13:53;3.95;;;3.25;;
53594;SDS011;39479;45.720;11.310;2023-07-28T11:16:20;3.40;;;3.10;;
53594;SDS011;39479;45.720;11.310;2023-07-28T11:18:46;4.75;;;3.30;;
53594;SDS011;39479;45.720;11.310;2023-07-28T11:21:12;3.22;;;2.88;;
53594;SDS011;39479;45.720;11.310;2023-07-28T11:23:38;3.10;;;2.80;;
53594;SDS011;39479;45.720;11.310;2023-07-28T11:26:05;3.83;;;3.08;;
53594;SDS011;39479;45.720;11.310;2023-07-28T11:28:32;4.43;;;3.45;;
53594;SDS011;39479;45.720;11.310;2023-07-28T11:30:59;6.03;;;3.15;;
53594;SDS011;39479;45.720;11.310;2023-07-28T11:33:25;4.25;;;3.03;;
53594;SDS011;39479;45.720;11.310;2023-07-28T11:35:51;3.55;;;3.00;;
53594;SDS011;39479;45.720;11.310;2023-07-28T11:38:17;4.72;;;3.08;;
53594;SDS011;39479;45.720;11.310;2023-07-28T11:40:43;4.28;;;3.38;;
53594;SDS011;39479;45.720;11.310;2023-07-28T11:43:10;4.20;;;3.30;;
53594;SDS011;39479;45.720;11.310;2023-07-28T11:45:36;4.07;;;3.13;;
53594;SDS011;39479;45.720;11.310;2023-07-28T11:50:29;3.58;;;3.20;;
53594;SDS011;39479;45.720;11.310;2023-07-28T11:52:56;6.32;;;3.67;;
53594;SDS011;39479;45.720;11.310;2023-07-28T11:55:23;5.20;;;3.45;;
53594;SDS011;39479;45.720;11.310;2023-07-28T11:57:49;3.55;;;3.10;;
53594;SDS011;39479;45.720;11.310;2023-07-28T12:00:15;5.05;;;3.22;;
53594;SDS011;39479;45.720;11.310;2023-07-28T12:02:42;6.80;;;3.47;;
53594;SDS011;39479;45.720;11.310;2023-07-28T12:05:11;6.80;;;4.07;;
53594;SDS011;39479;45.720;11.310;2023-07-28T12:07:38;6.97;;;4.57;;
53594;SDS011;39479;45.720;11.310;2023-07-28T12:10:04;5.35;;;3.78;;
53594;SDS011;39479;45.720;11.310;2023-07-28T12:12:47;4.07;;;3.17;;
53594;SDS011;39479;45.720;11.310;2023-07-28T12:15:27;3.92;;;3.25;;
53594;SDS011;39479;45.720;11.310;2023-07-28T12:18:27;5.05;;;3.70;;
53594;SDS011;39479;45.720;11.310;2023-07-28T12:20:47;4.32;;;3.92;;
53594;SDS011;39479;45.720;11.310;2023-07-28T12:23:18;4.75;;;3.50;;
53594;SDS011;39479;45.720;11.310;2023-07-28T12:25:44;4.07;;;3.42;;
53594;SDS011;39479;45.720;11.310;2023-07-28T12:28:10;5.15;;;3.42;;
53594;SDS011;39479;45.720;11.310;2023-07-28T12:30:37;5.40;;;3.75;;
53594;SDS011;39479;45.720;11.310;2023-07-28T12:33:03;5.53;;;4.10;;
53594;SDS011;39479;45.720;11.310;2023-07-28T12:35:30;4.43;;;3.33;;
53594;SDS011;39479;45.720;11.310;2023-07-28T12:37:58;5.32;;;3.83;;
53594;SDS011;39479;45.720;11.310;2023-07-28T12:40:29;4.22;;;3.20;;
53594;SDS011;39479;45.720;11.310;2023-07-28T12:42:56;4.95;;;3.58;;
53594;SDS011;39479;45.720;11.310;2023-07-28T12:45:22;4.78;;;3.35;;
53594;SDS011;39479;45.720;11.310;2023-07-28T12:47:50;4.75;;;3.67;;
53594;SDS011;39479;45.720;11.310;2023-07-28T12:50:16;4.20;;;3.15;;
53594;SDS011;39479;45.720;11.310;2023-07-28T12:52:42;5.63;;;3.33;;
53594;SDS011;39479;45.720;11.310;2023-07-28T12:55:08;4.20;;;2.97;;
53594;SDS011;39479;45.720;11.310;2023-07-28T12:57:35;5.68;;;3.45;;
53594;SDS011;39479;45.720;11.310;2023-07-28T13:00:01;4.00;;;3.50;;
53594;SDS011;39479;45.720;11.310;2023-07-28T13:02:32;5.53;;;3.72;;
53594;SDS011;39479;45.720;11.310;2023-07-28T13:04:58;4.80;;;3.42;;
53594;SDS011;39479;45.720;11.310;2023-07-28T13:07:24;4.00;;;3.40;;
53594;SDS011;39479;45.720;11.310;2023-07-28T13:09:50;7.20;;;3.60;;
53594;SDS011;39479;45.720;11.310;2023-07-28T13:12:16;8.10;;;3.90;;
53594;SDS011;39479;45.720;11.310;2023-07-28T13:14:42;4.72;;;3.75;;
53594;SDS011;39479;45.720;11.310;2023-07-28T13:17:08;4.72;;;3.42;;
53594;SDS011;39479;45.720;11.310;2023-07-28T13:19:34;5.15;;;3.55;;
53594;SDS011;39479;45.720;11.310;2023-07-28T13:22:00;5.30;;;3.75;;
53594;SDS011;39479;45.720;11.310;2023-07-28T13:24:26;3.70;;;3.30;;
53594;SDS011;39479;45.720;11.310;2023-07-28T13:26:52;5.40;;;3.78;;
53594;SDS011;39479;45.720;11.310;2023-07-28T13:29:18;4.80;;;3.42;;
53594;SDS011;39479;45.720;11.310;2023-07-28T13:31:44;3.83;;;3.30;;
53594;SDS011;39479;45.720;11.310;2023-07-28T13:34:10;4.35;;;3.67;;
53594;SDS011;39479;45.720;11.310;2023-07-28T13:36:36;6.20;;;3.70;;
53594;SDS011;39479;45.720;11.310;2023-07-28T13:39:02;4.43;;;3.38;;
53594;SDS011;39479;45.720;11.310;2023-07-28T13:41:29;3.92;;;3.53;;
53594;SDS011;39479;45.720;11.310;2023-07-28T13:43:55;5.90;;;3.70;;
53594;SDS011;39479;45.720;11.310;2023-07-28T13:46:21;3.97;;;3.42;;
53594;SDS011;39479;45.720;11.310;2023-07-28T13:48:47;3.85;;;3.17;;
53594;SDS011;39479;45.720;11.310;2023-07-28T13:51:13;5.28;;;3.85;;
53594;SDS011;39479;45.720;11.310;2023-07-28T13:53:39;7.10;;;3.80;;
53594;SDS011;39479;45.720;11.310;2023-07-28T13:56:05;7.07;;;3.88;;
53594;SDS011;39479;45.720;11.310;2023-07-28T13:58:31;5.13;;;3.53;;
53594;SDS011;39479;45.720;11.310;2023-07-28T14:00:57;5.07;;;4.00;;
53594;SDS011;39479;45.720;11.310;2023-07-28T14:03:23;10.00;;;3.80;;
53594;SDS011;39479;45.720;11.310;2023-07-28T14:05:49;3.92;;;3.53;;
53594;SDS011;39479;45.720;11.310;2023-07-28T14:08:15;4.88;;;3.80;;
53594;SDS011;39479;45.720;11.310;2023-07-28T14:10:45;6.35;;;3.72;;
53594;SDS011;39479;45.720;11.310;2023-07-28T14:13:11;4.78;;;3.60;;
53594;SDS011;39479;45.720;11.310;2023-07-28T14:15:37;4.22;;;3.30;;
53594;SDS011;39479;45.720;11.310;2023-07-28T14:18:03;5.20;;;3.95;;
53594;SDS011;39479;45.720;11.310;2023-07-28T14:20:29;6.38;;;3.85;;
53594;SDS011;39479;45.720;11.310;2023-07-28T14:22:55;4.13;;;3.40;;
53594;SDS011;39479;45.720;11.310;2023-07-28T14:25:21;5.35;;;3.58;;
53594;SDS011;39479;45.720;11.310;2023-07-28T14:27:47;4.45;;;3.35;;
53594;SDS011;39479;45.720;11.310;2023-07-28T14:30:13;6.28;;;3.90;;
53594;SDS011;39479;45.720;11.310;2023-07-28T14:32:39;5.03;;;3.40;;
53594;SDS011;39479;45.720;11.310;2023-07-28T14:35:06;6.32;;;3.38;;
53594;SDS011;39479;45.720;11.310;2023-07-28T14:37:32;5.05;;;3.28;;
53594;SDS011;39479;45.720;11.310;2023-07-28T14:39:58;6.07;;;3.38;;